WIII Airport Information

Runway Information
Runway 07L Length 11812 ft width 197 ft
Elevation 29 ft Threshold 0 ft Heading 68
Runway 25R Length 11812 ft Width 197 ft
Elevation 21 ft Threshold 0 ft Heading 248
Runway 07R Length 12008 ft width 197 ft
Elevation 34 ft Threshold 0 ft Heading 68
Runway 25L Length 12008 ft Width 197 ft
Elevation 27 ft Threshold 0 ft Heading 248
Airport Frequencies
Type APP Name JAKARTA AP Frequency 119.75 MHZ
Type ARR Name JAKARTA AR Frequency 125.45 MHZ
Type ATIS Name ATIS Frequency 126.85 MHZ
Type CLD Name CLNC DEL Frequency 121.95 MHZ
Type FSS Name JAKARTA CE Frequency 129.7 MHZ
Type GND Name GND Frequency 121.6 MHZ
Type INFO Name PABELOKAN Frequency 129.8 MHZ
Type TWR Name TWR Frequency 118.75 MHZ
Airport Navaids
Type VOR-DME Name Cengkareng Frequency 113600 KHZ
Type VOR-DME Name Jakarta Frequency 114600 KHZ
Airport Weather Information & NOTAM
ADDS - METARS form results

(0027 UTC 25 March 2019)
Data provider http://aviationweather.gov/metar/data/
 
METAR text: WIII 250000Z 25006KT 7000 FEW020 27/23 Q1010 NOSIG
Conditions at: WIII (SOEKARNO-HATTA I, ID) observed 0000 UTC 25 March 2019
Temperature: 27.0°C (81°F)
Dewpoint: 23.0°C (73°F) [RH = 79%]
Pressure (altimeter): 29.82 inches Hg (1010.0 mb)
Winds: from the WSW (250 degrees) at 7 MPH (6 knots; 3.1 m/s)
Visibility: 4 miles ( 7 km)
Ceiling: at least 12,000 feet AGL
Clouds: few clouds at 2000 feet AGL
Weather: no significant weather observed at this time

METAR text: WIII 242330Z 27006KT 6000 FEW020 26/23 Q1010 NOSIG
Conditions at: WIII (SOEKARNO-HATTA I, ID) observed 2330 UTC 24 March 2019
Temperature: 26.0°C (79°F)
Dewpoint: 23.0°C (73°F) [RH = 84%]
Pressure (altimeter): 29.82 inches Hg (1010.0 mb)
Winds: from the W (270 degrees) at 7 MPH (6 knots; 3.1 m/s)
Visibility: 4 miles ( 6 km)
Ceiling: at least 12,000 feet AGL
Clouds: few clouds at 2000 feet AGL
Weather: no significant weather observed at this time

Forecast for: WIII (SOEKARNO-HATTA I, ID)
Text: TAF WIII 242300Z 2500/2606 27010KT 9000 SCT020
Forecast period: 0000 UTC 25 March 2019 to 0600 UTC 26 March 2019
Forecast type: FROM: standard forecast or significant change
Winds: from the W (270 degrees) at 12 MPH (10 knots; 5.1 m/s)
Visibility: 6 miles (9 km)
Ceiling: at least 12,000 feet AGL
Clouds: scattered clouds at 2000 feet AGL
Weather: no significant weather forecast for this period